Time;durP1;ratioP1;P1;durP2;ratioP2;P2;SDS_P1;SDS_P2;PMS_P1;PMS_P2;Temp;Humidity;BMP_temperature;BMP_pressure;BME280_temperature;BME280_humidity;BME280_pressure;Samples;Min_cycle;Max_cycle;Signal;HPM_P1;HPM_P2
2022/01/20 00:02:07;;;;;;;15.15;4.72;;;6.80;97.80;;;;;;5023615;28;20056;-62
2022/01/20 00:04:45;;;;;;;11.60;4.03;;;6.80;97.70;;;;;;5029263;28;20021;-63
2022/01/20 00:07:32;;;;;;;9.93;4.10;;;6.80;97.50;;;;;;5024008;28;20041;-63
2022/01/20 00:25:48;;;;;;;10.10;2.95;;;6.70;96.60;;;;;;5014878;28;20125;-64
2022/01/20 00:26:20;;;;;;;12.23;3.67;;;6.70;96.80;;;;;;5031851;28;20382;-64
2022/01/20 00:28:50;;;;;;;15.25;3.13;;;6.70;96.70;;;;;;5034358;28;20037;-64
2022/01/20 00:34:14;;;;;;;15.77;3.75;;;6.70;96.70;;;;;;5014113;28;20044;-64
2022/01/20 00:37:22;;;;;;;10.65;3.20;;;6.70;96.70;;;;;;5022524;28;20041;-64
2022/01/20 00:39:29;;;;;;;15.80;3.85;;;6.70;96.90;;;;;;5027305;28;20064;-63
2022/01/20 00:41:55;;;;;;;10.50;3.95;;;6.80;96.80;;;;;;5019334;28;20038;-63
2022/01/20 00:44:22;;;;;;;12.43;3.72;;;6.70;96.90;;;;;;5013923;28;20022;-63
2022/01/20 00:46:47;;;;;;;11.77;3.83;;;6.70;96.90;;;;;;5014758;28;20517;-64
2022/01/20 00:49:13;;;;;;;12.70;4.03;;;6.70;97.00;;;;;;5017880;28;20029;-63
2022/01/20 00:51:39;;;;;;;10.35;4.45;;;6.70;97.10;;;;;;5022300;28;20044;-64
2022/01/20 00:54:04;;;;;;;9.18;3.58;;;6.70;97.20;;;;;;5027689;28;20026;-63
2022/01/20 00:56:30;;;;;;;13.02;3.58;;;6.70;97.20;;;;;;5013517;28;20417;-64
2022/01/20 00:58:56;;;;;;;13.38;4.20;;;6.80;97.30;;;;;;5018201;28;20022;-64
2022/01/20 01:01:24;;;;;;;10.18;3.85;;;6.70;97.30;;;;;;5024027;28;20054;-63
2022/01/20 01:03:49;;;;;;;13.45;3.63;;;6.70;97.30;;;;;;5014115;28;20052;-63
2022/01/20 01:06:33;;;;;;;10.15;3.63;;;6.70;97.30;;;;;;5013930;28;20018;-63
2022/01/20 01:08:59;;;;;;;13.40;3.40;;;6.70;97.30;;;;;;5013387;28;20037;-63
2022/01/20 01:11:25;;;;;;;9.38;3.55;;;6.60;97.20;;;;;;5014035;28;20416;-63
2022/01/20 01:13:51;;;;;;;13.35;3.53;;;6.50;97.00;;;;;;5032330;28;20126;-63
2022/01/20 01:16:20;;;;;;;14.80;3.22;;;6.50;96.80;;;;;;5031615;28;20065;-63
2022/01/20 01:22:04;;;;;;;16.73;3.63;;;6.40;96.60;;;;;;5025804;28;20174;-62
2022/01/20 01:24:16;;;;;;;11.35;3.03;;;6.40;96.40;;;;;;5012809;28;20052;-62
2022/01/20 01:26:41;;;;;;;11.25;2.80;;;6.30;96.30;;;;;;5022112;28;20432;-62
2022/01/20 01:29:24;;;;;;;13.95;3.92;;;6.30;96.40;;;;;;5021583;28;20029;-63
2022/01/20 01:31:50;;;;;;;14.13;4.47;;;6.30;96.40;;;;;;5030963;28;20084;-63
2022/01/20 01:34:16;;;;;;;17.48;3.65;;;6.30;96.40;;;;;;5029624;28;20041;-63
2022/01/20 01:38:24;;;;;;;11.00;3.00;;;6.30;96.50;;;;;;5031563;28;20395;-62
2022/01/20 01:39:37;;;;;;;13.32;3.45;;;6.30;96.50;;;;;;5007801;28;20034;-62
2022/01/20 01:42:02;;;;;;;10.82;2.72;;;6.20;96.50;;;;;;5014139;28;20539;-62
2022/01/20 01:44:30;;;;;;;14.45;2.92;;;6.20;96.40;;;;;;5032987;28;20025;-62
2022/01/20 01:46:58;;;;;;;12.48;3.30;;;6.20;96.40;;;;;;5027196;28;20036;-62
2022/01/20 01:49:24;;;;;;;10.68;3.03;;;6.20;96.40;;;;;;5028779;28;20400;-63
2022/01/20 01:51:49;;;;;;;11.05;3.25;;;6.20;96.60;;;;;;5031511;28;20104;-62
2022/01/20 01:54:16;;;;;;;14.50;3.50;;;6.20;96.40;;;;;;5030121;28;20476;-63
2022/01/20 01:56:42;;;;;;;12.30;3.55;;;6.10;96.30;;;;;;5021855;28;20025;-63
2022/01/20 01:59:09;;;;;;;11.65;3.20;;;6.10;96.30;;;;;;5032207;28;20404;-63
2022/01/20 02:01:37;;;;;;;16.73;3.67;;;6.10;96.30;;;;;;5030624;28;20045;-63
2022/01/20 02:04:14;;;;;;;14.82;4.40;;;6.00;96.20;;;;;;5015930;28;20108;-63
2022/01/20 02:17:59;;;;;;;16.00;3.97;;;5.90;96.00;;;;;;5012370;28;20037;-63
2022/01/20 02:20:25;;;;;;;12.23;3.08;;;5.80;95.90;;;;;;5022085;28;20422;-63
2022/01/20 02:22:51;;;;;;;11.00;3.50;;;5.80;95.90;;;;;;5031493;28;20032;-63
2022/01/20 02:25:21;;;;;;;17.48;3.58;;;5.80;95.80;;;;;;5026707;28;20030;-63
2022/01/20 02:27:47;;;;;;;11.98;2.50;;;5.80;95.80;;;;;;5018033;28;20040;-64
2022/01/20 02:30:15;;;;;;;15.27;2.90;;;5.70;95.70;;;;;;5020151;28;20455;-64
2022/01/20 02:32:41;;;;;;;10.05;2.78;;;5.70;95.50;;;;;;5031057;28;20034;-63
2022/01/20 02:35:09;;;;;;;12.32;3.42;;;5.80;95.40;;;;;;5028787;28;20025;-64
2022/01/20 02:37:35;;;;;;;13.63;3.22;;;5.70;95.30;;;;;;5031738;28;20512;-63
2022/01/20 02:45:42;;;;;;;11.35;3.00;;;5.60;95.20;;;;;;5012129;28;20568;-63
2022/01/20 02:48:08;;;;;;;15.45;3.03;;;5.60;95.10;;;;;;5012300;28;20041;-64
2022/01/20 02:50:33;;;;;;;10.65;2.83;;;5.60;94.90;;;;;;5034903;28;20037;-63
2022/01/20 02:52:59;;;;;;;14.48;3.08;;;5.60;95.00;;;;;;5044394;28;20109;-64
2022/01/20 02:55:25;;;;;;;9.13;3.08;;;5.50;95.00;;;;;;5031573;28;20227;-63
2022/01/20 02:57:50;;;;;;;12.63;2.88;;;5.50;95.00;;;;;;5023631;28;20048;-64
2022/01/20 03:00:16;;;;;;;13.75;3.03;;;5.50;95.00;;;;;;5019854;28;20047;-63
2022/01/20 03:02:42;;;;;;;10.25;2.75;;;5.50;94.90;;;;;;5011744;28;20485;-63
2022/01/20 03:05:10;;;;;;;12.18;2.65;;;5.50;94.90;;;;;;5011545;28;20410;-63
2022/01/20 03:07:36;;;;;;;13.23;2.58;;;5.50;94.80;;;;;;5011533;28;20129;-63
2022/01/20 03:10:03;;;;;;;17.70;3.00;;;5.50;94.80;;;;;;5018493;28;20508;-63
2022/01/20 03:12:28;;;;;;;8.98;2.75;;;5.40;94.70;;;;;;5031309;28;20065;-63
2022/01/20 03:14:54;;;;;;;11.90;2.90;;;5.40;94.70;;;;;;5027740;28;20107;-63
2022/01/20 03:17:19;;;;;;;9.05;3.00;;;5.40;94.70;;;;;;5029804;28;20164;-63
2022/01/20 03:19:45;;;;;;;12.77;2.22;;;5.40;94.70;;;;;;5028100;28;20026;-63
2022/01/20 03:22:10;;;;;;;11.05;2.63;;;5.40;94.80;;;;;;5030878;28;20076;-64
2022/01/20 03:24:36;;;;;;;11.73;2.67;;;5.40;94.80;;;;;;5029127;28;20021;-63
2022/01/20 03:27:02;;;;;;;12.13;2.42;;;5.40;94.80;;;;;;5030522;28;20041;-63
2022/01/20 03:29:27;;;;;;;11.00;2.92;;;5.40;94.90;;;;;;5026698;28;20026;-63
2022/01/20 03:31:53;;;;;;;8.75;1.80;;;5.40;94.90;;;;;;5018020;28;20092;-63
2022/01/20 03:34:21;;;;;;;13.27;2.70;;;5.40;95.00;;;;;;5028119;28;20026;-63
2022/01/20 03:36:47;;;;;;;7.38;2.55;;;5.50;95.00;;;;;;5011361;28;20057;-63
2022/01/20 03:39:12;;;;;;;5.88;2.20;;;5.50;95.00;;;;;;5023600;28;20480;-63
2022/01/20 03:41:38;;;;;;;7.57;2.10;;;5.50;95.10;;;;;;5030729;28;20036;-63
2022/01/20 03:44:04;;;;;;;11.98;2.78;;;5.50;95.10;;;;;;5019460;28;20480;-63
2022/01/20 03:46:29;;;;;;;13.00;2.25;;;5.50;95.10;;;;;;5032718;28;20029;-63
2022/01/20 03:49:06;;;;;;;11.90;2.47;;;5.50;95.10;;;;;;5022896;28;20432;-63
2022/01/20 03:51:31;;;;;;;13.45;2.88;;;5.50;95.10;;;;;;5030426;28;20029;-63
2022/01/20 03:53:58;;;;;;;11.48;2.33;;;5.50;95.10;;;;;;5030855;28;20091;-63
2022/01/20 03:56:23;;;;;;;11.77;3.05;;;5.50;95.10;;;;;;5032884;28;20045;-63
2022/01/20 03:58:50;;;;;;;11.50;2.67;;;5.50;95.10;;;;;;5023443;28;20034;-63
2022/01/20 04:01:16;;;;;;;15.57;3.42;;;5.50;95.00;;;;;;5031967;28;20133;-64
2022/01/20 04:03:42;;;;;;;12.32;3.88;;;5.50;95.00;;;;;;5025014;28;20153;-63
2022/01/20 04:06:07;;;;;;;14.65;3.80;;;5.60;95.00;;;;;;5013992;28;20041;-63
2022/01/20 04:08:35;;;;;;;16.88;3.85;;;5.50;95.00;;;;;;5021082;28;20423;-63
2022/01/20 04:11:05;;;;;;;15.98;3.35;;;5.50;94.90;;;;;;5032153;28;20038;-63
2022/01/20 04:13:32;;;;;;;11.65;3.50;;;5.60;94.90;;;;;;5028086;28;20030;-63
2022/01/20 04:16:10;;;;;;;19.25;3.75;;;5.60;94.90;;;;;;5032389;28;20025;-63
2022/01/20 04:18:36;;;;;;;13.10;3.10;;;5.60;94.90;;;;;;5015135;28;20044;-62
2022/01/20 04:21:02;;;;;;;16.73;3.50;;;5.60;95.00;;;;;;5014861;28;20030;-63
2022/01/20 04:23:30;;;;;;;9.00;2.40;;;5.60;94.90;;;;;;5031948;28;20034;-63
2022/01/20 04:25:56;;;;;;;14.95;3.78;;;5.60;94.90;;;;;;5031141;28;20045;-63
2022/01/20 04:28:21;;;;;;;15.98;3.40;;;5.60;95.00;;;;;;5034283;28;20100;-63
2022/01/20 04:30:47;;;;;;;10.82;4.05;;;5.50;95.10;;;;;;5031223;28;20099;-63
2022/01/20 04:33:12;;;;;;;30.00;4.00;;;5.50;95.60;;;;;;5034152;28;20018;-62
2022/01/20 04:35:38;;;;;;;10.07;2.47;;;5.20;95.60;;;;;;5022390;28;20061;-63
2022/01/20 04:38:03;;;;;;;12.75;2.15;;;5.00;95.90;;;;;;5014020;28;20056;-62
2022/01/20 04:40:36;;;;;;;6.55;1.63;;;4.70;96.30;;;;;;5016513;28;20029;-62
2022/01/20 04:43:02;;;;;;;9.93;1.75;;;4.50;96.20;;;;;;5029830;28;20060;-62
2022/01/20 04:45:33;;;;;;;11.90;3.67;;;4.40;96.60;;;;;;5032293;28;20065;-62
2022/01/20 04:59:00;;;;;;;6.57;1.97;;;3.90;97.10;;;;;;5013076;28;20042;-63
2022/01/20 05:01:25;;;;;;;7.55;1.52;;;3.90;97.00;;;;;;5014026;28;20292;-62
2022/01/20 05:03:51;;;;;;;5.65;2.03;;;3.90;96.80;;;;;;5021032;28;20465;-62
2022/01/20 05:06:16;;;;;;;5.88;1.90;;;3.90;96.90;;;;;;5023147;28;20041;-63
2022/01/20 05:08:42;;;;;;;8.45;2.08;;;3.90;96.90;;;;;;5013645;28;20416;-62
2022/01/20 05:11:09;;;;;;;8.55;1.83;;;3.90;96.80;;;;;;5014384;28;20025;-63
2022/01/20 05:13:40;;;;;;;8.20;1.77;;;3.90;96.80;;;;;;5013346;28;20033;-63
2022/01/20 05:16:05;;;;;;;7.35;2.28;;;3.90;96.70;;;;;;5031339;28;20030;-63
2022/01/20 05:18:31;;;;;;;12.45;2.00;;;3.90;96.60;;;;;;5033340;28;20392;-62
2022/01/20 05:20:57;;;;;;;6.65;1.88;;;3.90;96.60;;;;;;5027216;28;20018;-63
2022/01/20 05:23:22;;;;;;;9.10;2.58;;;3.90;96.60;;;;;;5013353;28;20033;-62
2022/01/20 05:25:48;;;;;;;5.93;2.25;;;3.90;96.40;;;;;;5019216;28;20045;-62
2022/01/20 05:28:14;;;;;;;10.93;2.47;;;3.80;96.40;;;;;;5013111;28;20569;-63
2022/01/20 05:30:40;;;;;;;6.50;2.35;;;3.90;96.70;;;;;;5028478;28;20021;-63
2022/01/20 05:33:06;;;;;;;8.60;1.80;;;3.90;96.60;;;;;;5033134;28;20025;-63
2022/01/20 05:35:32;;;;;;;11.13;2.95;;;3.90;96.50;;;;;;5032079;28;20085;-63
2022/01/20 05:37:57;;;;;;;8.57;2.10;;;3.90;96.50;;;;;;5033172;28;20029;-63
2022/01/20 05:40:23;;;;;;;7.75;2.13;;;3.90;96.50;;;;;;5020427;28;20026;-63
2022/01/20 05:42:49;;;;;;;10.50;3.20;;;3.90;96.30;;;;;;5012915;28;20069;-63
2022/01/20 05:45:14;;;;;;;8.38;3.00;;;4.00;96.40;;;;;;5022705;28;20026;-63
2022/01/20 05:47:46;;;;;;;9.18;2.85;;;4.00;96.40;;;;;;5022290;28;20100;-63
2022/01/20 05:50:17;;;;;;;12.65;2.78;;;4.00;96.20;;;;;;5016542;28;20492;-63
2022/01/20 05:52:44;;;;;;;6.38;2.35;;;4.00;96.10;;;;;;5013660;28;20046;-63
2022/01/20 05:55:20;;;;;;;9.52;2.17;;;4.00;95.90;;;;;;5020526;28;20059;-62
2022/01/20 05:57:46;;;;;;;11.52;3.33;;;4.00;95.90;;;;;;5013005;28;20046;-62
2022/01/20 06:00:20;;;;;;;9.07;2.28;;;4.00;95.90;;;;;;5021165;28;20045;-63
2022/01/20 06:05:32;;;;;;;5.97;2.60;;;4.00;95.70;;;;;;5014357;28;20049;-63
2022/01/20 06:07:57;;;;;;;5.75;1.90;;;4.10;95.60;;;;;;5012350;28;20052;-62
2022/01/20 06:10:23;;;;;;;8.77;2.78;;;4.10;95.30;;;;;;5022390;28;20040;-63
2022/01/20 06:12:48;;;;;;;8.15;2.40;;;4.10;95.40;;;;;;5028488;28;20092;-63
2022/01/20 06:15:14;;;;;;;8.63;2.53;;;4.20;95.30;;;;;;5024192;28;20025;-63
2022/01/20 06:17:41;;;;;;;8.20;2.85;;;4.10;94.50;;;;;;5029291;28;20083;-63
2022/01/20 06:20:08;;;;;;;6.90;1.70;;;4.10;93.60;;;;;;5030290;28;20116;-63
2022/01/20 06:22:33;;;;;;;6.10;1.95;;;4.10;93.70;;;;;;5030578;28;20079;-63
2022/01/20 06:24:59;;;;;;;7.65;2.03;;;4.10;93.30;;;;;;5023826;28;20026;-63
2022/01/20 06:27:24;;;;;;;8.20;1.88;;;4.00;92.90;;;;;;5012031;28;20038;-63
2022/01/20 06:29:50;;;;;;;4.47;1.90;;;4.00;92.20;;;;;;5016608;28;20022;-63
2022/01/20 06:32:16;;;;;;;7.15;1.85;;;3.90;92.40;;;;;;5017866;28;20033;-63
2022/01/20 06:34:41;;;;;;;9.43;1.90;;;3.80;92.40;;;;;;5014093;28;20457;-63
2022/01/20 06:37:07;;;;;;;10.32;2.00;;;3.80;92.70;;;;;;5026188;28;20049;-63
2022/01/20 06:39:33;;;;;;;10.25;1.88;;;3.80;91.90;;;;;;5030444;28;20021;-63
2022/01/20 06:41:58;;;;;;;8.13;1.70;;;3.80;92.10;;;;;;5030225;28;20045;-63
2022/01/20 06:44:25;;;;;;;5.75;2.10;;;3.80;91.40;;;;;;5028473;28;20537;-62
2022/01/20 06:46:51;;;;;;;10.82;2.45;;;3.80;91.80;;;;;;5029663;28;20064;-62
2022/01/20 06:49:18;;;;;;;6.22;2.05;;;3.70;90.90;;;;;;5025441;28;20041;-63
2022/01/20 06:51:44;;;;;;;5.88;1.35;;;3.60;90.30;;;;;;5011851;28;20461;-63
2022/01/20 06:54:10;;;;;;;5.13;1.88;;;3.60;89.80;;;;;;5017694;28;20033;-63
2022/01/20 06:56:36;;;;;;;6.60;1.95;;;3.50;88.40;;;;;;5015040;28;20416;-63
2022/01/20 06:59:02;;;;;;;15.23;2.03;;;3.50;88.60;;;;;;5016300;28;20025;-63
2022/01/20 07:01:28;;;;;;;6.82;1.75;;;3.50;89.90;;;;;;5011365;28;20050;-63
2022/01/20 07:03:53;;;;;;;6.07;1.70;;;3.50;90.00;;;;;;5026811;28;20551;-63
2022/01/20 07:06:19;;;;;;;6.95;1.80;;;3.50;88.70;;;;;;5026332;28;20038;-63
2022/01/20 07:08:44;;;;;;;8.77;1.80;;;3.50;89.40;;;;;;5011980;28;20108;-63
2022/01/20 07:11:10;;;;;;;8.38;2.42;;;3.50;88.30;;;;;;5011834;28;20481;-63
2022/01/20 07:13:35;;;;;;;7.93;2.40;;;3.50;87.70;;;;;;5015384;28;20025;-63
2022/01/20 07:16:02;;;;;;;9.43;2.00;;;3.50;88.90;;;;;;5019372;28;20022;-63
2022/01/20 07:18:27;;;;;;;7.72;2.75;;;3.50;87.70;;;;;;5011499;28;20034;-63
2022/01/20 07:20:53;;;;;;;10.40;3.42;;;3.50;88.60;;;;;;5024900;28;20044;-63
2022/01/20 07:23:19;;;;;;;11.02;2.90;;;3.50;89.00;;;;;;5014278;28;20026;-63
2022/01/20 07:25:44;;;;;;;6.63;2.17;;;3.60;90.00;;;;;;5026434;28;20034;-63
2022/01/20 07:28:10;;;;;;;6.65;2.25;;;3.50;90.20;;;;;;5030918;28;20099;-63
2022/01/20 07:30:35;;;;;;;7.93;2.10;;;3.40;90.50;;;;;;5019412;28;20018;-64
2022/01/20 07:33:03;;;;;;;8.05;2.40;;;3.40;90.80;;;;;;5011456;28;20117;-63
2022/01/20 07:35:29;;;;;;;8.05;2.17;;;3.40;90.90;;;;;;5013364;28;20110;-63
2022/01/20 07:37:55;;;;;;;4.80;1.90;;;3.40;91.20;;;;;;5011353;28;20049;-64
2022/01/20 07:40:21;;;;;;;3.42;1.80;;;3.40;91.40;;;;;;5014051;28;20030;-63
2022/01/20 07:42:46;;;;;;;10.23;2.83;;;3.40;91.50;;;;;;5025112;28;20037;-63
2022/01/20 07:45:11;;;;;;;5.95;2.20;;;3.30;91.60;;;;;;5023602;28;20049;-63
2022/01/20 07:47:37;;;;;;;6.57;2.83;;;3.30;91.60;;;;;;5022823;28;20033;-63
2022/01/20 07:50:03;;;;;;;6.60;2.55;;;3.20;91.70;;;;;;5017059;28;20031;-64
2022/01/20 07:52:29;;;;;;;4.55;1.88;;;3.20;91.70;;;;;;5026970;28;20400;-65
2022/01/20 07:54:54;;;;;;;6.03;2.00;;;3.30;91.60;;;;;;5016129;28;20022;-64
2022/01/20 07:57:20;;;;;;;8.80;2.42;;;3.30;91.60;;;;;;5011867;28;20030;-65
2022/01/20 07:59:46;;;;;;;5.70;1.90;;;3.30;91.20;;;;;;5025999;28;20045;-65
2022/01/20 08:02:11;;;;;;;8.55;2.25;;;3.40;90.80;;;;;;5014688;28;20026;-64
2022/01/20 08:04:37;;;;;;;3.88;1.85;;;3.30;90.50;;;;;;5011615;28;20045;-65
2022/01/20 08:07:02;;;;;;;7.47;2.20;;;3.30;90.50;;;;;;5012107;28;20108;-64
2022/01/20 08:09:28;;;;;;;7.15;2.42;;;3.30;90.40;;;;;;5023896;28;20026;-64
2022/01/20 08:11:53;;;;;;;13.50;2.58;;;3.40;90.40;;;;;;5014001;28;20552;-63
2022/01/20 08:14:19;;;;;;;5.03;1.80;;;3.40;90.40;;;;;;5021839;28;20548;-64
2022/01/20 08:16:44;;;;;;;6.07;2.13;;;3.40;90.10;;;;;;5025550;28;20032;-64
2022/01/20 08:19:10;;;;;;;10.02;3.30;;;3.40;89.60;;;;;;5021107;28;20647;-64
2022/01/20 08:21:35;;;;;;;7.05;2.10;;;3.40;89.70;;;;;;5029185;28;20041;-64
2022/01/20 08:24:01;;;;;;;10.27;2.47;;;3.50;89.90;;;;;;5020030;28;20120;-65
2022/01/20 08:26:26;;;;;;;14.95;2.72;;;3.60;89.50;;;;;;5014419;28;20037;-65
2022/01/20 08:28:52;;;;;;;9.70;2.47;;;3.60;89.80;;;;;;5024674;28;20311;-64
2022/01/20 08:31:17;;;;;;;5.55;1.65;;;3.70;90.10;;;;;;5022478;28;20022;-65
2022/01/20 08:33:43;;;;;;;9.57;2.97;;;3.70;90.10;;;;;;5023305;28;20029;-65
2022/01/20 08:36:08;;;;;;;442.25;62.33;;;3.90;90.30;;;;;;5016506;28;20026;-65
2022/01/20 08:38:34;;;;;;;97.85;19.05;;;4.00;90.10;;;;;;5013801;28;20030;-65
2022/01/20 08:40:59;;;;;;;35.28;5.72;;;4.00;90.00;;;;;;5028861;28;20074;-65
2022/01/20 08:43:25;;;;;;;15.00;2.92;;;4.00;88.60;;;;;;5022127;28;20026;-65
2022/01/20 08:45:51;;;;;;;44.80;7.55;;;4.10;88.90;;;;;;5018108;28;20041;-65
2022/01/20 08:48:16;;;;;;;16.90;3.97;;;4.10;88.60;;;;;;5021848;28;20426;-65
2022/01/20 08:50:43;;;;;;;16.88;3.47;;;4.10;88.40;;;;;;5018215;28;20025;-65
2022/01/20 08:53:10;;;;;;;173.00;24.13;;;4.10;86.90;;;;;;5016962;28;20168;-65
2022/01/20 08:55:36;;;;;;;378.90;68.15;;;4.00;86.80;;;;;;5017199;28;20044;-65
2022/01/20 08:58:04;;;;;;;161.50;24.10;;;4.00;86.60;;;;;;5013599;28;20060;-65
2022/01/20 09:00:31;;;;;;;681.83;115.80;;;4.00;85.80;;;;;;5022664;28;20049;-65
2022/01/20 09:02:58;;;;;;;469.80;71.18;;;4.00;86.30;;;;;;5030408;28;20033;-65
2022/01/20 09:05:24;;;;;;;891.63;169.10;;;4.00;85.90;;;;;;5027519;28;20107;-65
2022/01/20 09:07:49;;;;;;;69.00;13.15;;;4.10;86.70;;;;;;5031651;28;20061;-64
2022/01/20 09:10:20;;;;;;;82.82;15.55;;;4.20;86.10;;;;;;5018833;28;20068;-66
2022/01/20 09:15:29;;;;;;;51.20;7.68;;;4.20;85.90;;;;;;5027750;28;20489;-64
2022/01/20 09:17:56;;;;;;;36.30;8.10;;;4.40;85.90;;;;;;5013073;28;20685;-64
2022/01/20 09:20:23;;;;;;;10.90;2.70;;;4.40;85.00;;;;;;5019228;28;20041;-64
2022/01/20 09:22:50;;;;;;;11.60;3.83;;;4.40;84.10;;;;;;5015963;28;20148;-65
2022/01/20 09:25:16;;;;;;;19.15;3.58;;;4.40;85.30;;;;;;5024702;28;20063;-65
2022/01/20 09:27:42;;;;;;;18.65;3.47;;;4.40;85.40;;;;;;5028106;28;20053;-64
2022/01/20 09:30:09;;;;;;;12.52;4.38;;;4.40;85.30;;;;;;5018423;28;20057;-64
2022/01/20 09:32:37;;;;;;;11.60;2.90;;;4.50;85.70;;;;;;5032081;28;20053;-65
2022/01/20 09:35:04;;;;;;;34.75;6.13;;;4.60;86.10;;;;;;5029675;28;20032;-65
2022/01/20 09:37:30;;;;;;;12.38;3.65;;;4.60;86.30;;;;;;5031676;28;20062;-66
2022/01/20 09:39:56;;;;;;;14.07;3.05;;;4.60;86.30;;;;;;5025412;28;20025;-64
2022/01/20 09:42:23;;;;;;;16.20;3.95;;;4.60;86.40;;;;;;5032271;28;20040;-64
2022/01/20 09:44:48;;;;;;;15.05;3.78;;;4.60;85.90;;;;;;5030102;28;20484;-66
2022/01/20 09:47:18;;;;;;;13.43;2.90;;;4.50;85.40;;;;;;5031294;28;20072;-66
2022/01/20 09:49:43;;;;;;;11.80;2.95;;;4.50;85.80;;;;;;5026503;28;20030;-65
2022/01/20 09:52:09;;;;;;;12.25;3.00;;;4.50;85.60;;;;;;5015460;28;20381;-65
2022/01/20 09:54:34;;;;;;;12.35;3.20;;;4.50;86.30;;;;;;5024422;28;20029;-65
2022/01/20 09:57:00;;;;;;;13.65;2.90;;;4.50;86.50;;;;;;5028376;28;20048;-65
2022/01/20 09:59:27;;;;;;;13.00;4.47;;;4.60;86.90;;;;;;5029769;28;20033;-64
2022/01/20 10:01:57;;;;;;;16.13;3.42;;;4.70;86.40;;;;;;5019578;28;20037;-65
2022/01/20 10:04:31;;;;;;;12.15;2.75;;;4.70;86.70;;;;;;5025075;28;20041;-65
2022/01/20 10:07:08;;;;;;;13.60;3.20;;;4.80;86.30;;;;;;5020743;28;20034;-64
2022/01/20 10:09:39;;;;;;;9.80;2.90;;;4.90;86.40;;;;;;5032869;28;20037;-66
2022/01/20 10:12:06;;;;;;;9.93;2.80;;;4.80;85.80;;;;;;5023537;28;20030;-65
2022/01/20 10:14:46;;;;;;;12.82;2.63;;;4.90;85.90;;;;;;5027900;28;20053;-66
2022/01/20 10:17:21;;;;;;;7.38;2.28;;;4.90;85.60;;;;;;5029892;28;20037;-65
2022/01/20 10:19:50;;;;;;;;;;;4.90;85.70;;;;;;5021378;28;20112;-65
2022/01/20 10:22:21;;;;;;;12.95;2.90;;;5.00;85.60;;;;;;5030774;28;19909;-66
2022/01/20 10:25:04;;;;;;;17.52;3.15;;;5.00;85.80;;;;;;5025300;28;20095;-65
2022/01/20 10:27:31;;;;;;;12.38;3.60;;;5.00;85.40;;;;;;5021974;28;20041;-65
2022/01/20 10:30:02;;;;;;;12.80;2.67;;;5.00;85.10;;;;;;5028659;28;20029;-65
2022/01/20 10:32:39;;;;;;;10.10;2.80;;;5.10;84.80;;;;;;5029102;28;20125;-65
2022/01/20 10:35:05;;;;;;;12.40;3.30;;;5.00;84.70;;;;;;5029159;28;20022;-66
2022/01/20 10:37:31;;;;;;;14.40;2.78;;;5.10;84.60;;;;;;5028237;28;20040;-66
2022/01/20 10:40:09;;;;;;;219.00;37.38;;;5.20;85.10;;;;;;5023966;28;20030;-66
2022/01/20 10:42:40;;;;;;;354.33;53.45;;;5.20;84.40;;;;;;5015294;28;20042;-66
2022/01/20 10:45:07;;;;;;;1820.03;356.33;;;5.20;84.40;;;;;;5016380;28;20101;-66
2022/01/20 10:47:36;;;;;;;199.32;35.03;;;5.20;84.20;;;;;;5030199;28;20467;-65
2022/01/20 10:50:13;;;;;;;464.45;78.60;;;5.20;83.80;;;;;;5028887;28;20025;-66
2022/01/20 10:52:43;;;;;;;257.85;47.97;;;5.10;82.90;;;;;;5025423;28;20033;-66
2022/01/20 10:55:20;;;;;;;176.40;27.83;;;5.20;83.50;;;;;;5026894;28;20034;-65
2022/01/20 10:57:46;;;;;;;44.72;8.30;;;5.20;84.50;;;;;;5045662;28;20037;-66
2022/01/20 11:00:15;;;;;;;14.73;3.63;;;5.30;84.20;;;;;;5039618;28;20037;-66
2022/01/20 11:02:41;;;;;;;9.32;3.03;;;5.30;83.40;;;;;;5030227;28;20061;-66
2022/01/20 11:05:07;;;;;;;16.42;3.47;;;5.20;83.20;;;;;;5014704;28;20056;-66
2022/01/20 11:07:33;;;;;;;9.90;2.97;;;5.20;82.80;;;;;;5010677;28;20403;-65
2022/01/20 11:10:02;;;;;;;13.57;3.92;;;5.20;82.80;;;;;;5021615;28;20033;-65
2022/01/20 11:12:28;;;;;;;1056.93;206.40;;;5.20;83.10;;;;;;5024272;28;20048;-65
2022/01/20 11:14:56;;;;;;;304.83;51.55;;;5.10;83.40;;;;;;5030455;28;20026;-65
2022/01/20 11:17:25;;;;;;;261.63;45.45;;;5.20;83.90;;;;;;5028849;28;20445;-65
2022/01/20 11:19:51;;;;;;;246.50;39.28;;;5.20;83.80;;;;;;5021979;28;20029;-64
2022/01/20 11:22:18;;;;;;;413.67;57.65;;;5.20;83.10;;;;;;5027949;28;20021;-66
2022/01/20 11:24:44;;;;;;;41.15;6.65;;;5.10;83.00;;;;;;5021036;28;20080;-65
2022/01/20 11:27:13;;;;;;;125.80;17.77;;;5.10;83.50;;;;;;5016797;28;20026;-65
2022/01/20 11:29:43;;;;;;;163.70;30.48;;;5.10;83.20;;;;;;5019268;28;20060;-64
2022/01/20 11:32:19;;;;;;;752.88;129.07;;;5.10;83.10;;;;;;5028283;28;20029;-64
2022/01/20 11:35:16;;;;;;;106.18;18.98;;;5.20;83.30;;;;;;5023662;28;20034;-64
2022/01/20 11:37:54;;;;;;;569.22;95.72;;;5.20;82.60;;;;;;5012643;28;20092;-64
2022/01/20 11:40:22;;;;;;;298.10;40.15;;;5.30;82.90;;;;;;5019157;28;20037;-64
2022/01/20 11:42:57;;;;;;;81.57;12.95;;;5.30;82.60;;;;;;5010826;28;20029;-64
2022/01/20 11:45:32;;;;;;;21.52;4.35;;;5.40;82.30;;;;;;5021193;28;20041;-65
2022/01/20 11:48:14;;;;;;;17.27;4.80;;;5.40;81.40;;;;;;5027245;28;20042;-66
2022/01/20 11:50:40;;;;;;;70.60;13.68;;;5.40;82.20;;;;;;5021472;28;20029;-66
2022/01/20 11:53:13;;;;;;;181.50;30.38;;;5.50;80.90;;;;;;5018378;28;20026;-65
2022/01/20 11:55:54;;;;;;;218.23;27.98;;;5.50;81.20;;;;;;5014647;28;20105;-65
2022/01/20 11:58:23;;;;;;;170.63;28.65;;;5.60;81.50;;;;;;5024580;28;20030;-65
2022/01/20 12:01:06;;;;;;;72.05;13.88;;;5.70;81.10;;;;;;5029106;28;20045;-65
2022/01/20 12:03:34;;;;;;;166.18;26.55;;;5.70;80.40;;;;;;5011009;28;20030;-64
2022/01/20 12:06:09;;;;;;;85.43;17.27;;;5.70;79.70;;;;;;5011014;28;20026;-64
2022/01/20 12:08:35;;;;;;;208.82;32.17;;;5.80;80.10;;;;;;5031094;28;20062;-64
2022/01/20 12:11:07;;;;;;;161.00;24.35;;;5.70;77.50;;;;;;5027921;28;20032;-64
2022/01/20 12:13:44;;;;;;;321.67;54.72;;;5.70;78.50;;;;;;5034558;28;20025;-64
2022/01/20 12:16:10;;;;;;;537.05;99.57;;;5.70;78.40;;;;;;5014853;28;20429;-64
2022/01/20 12:18:35;;;;;;;472.65;67.25;;;5.60;77.30;;;;;;5019207;28;20120;-64
2022/01/20 12:21:04;;;;;;;396.85;63.00;;;5.60;77.80;;;;;;5032726;28;20594;-64
2022/01/20 12:23:29;;;;;;;398.00;71.07;;;5.60;78.10;;;;;;5033716;28;20087;-64
2022/01/20 12:26:03;;;;;;;561.13;101.65;;;5.60;78.10;;;;;;5014508;28;20022;-64
2022/01/20 12:28:29;;;;;;;299.08;44.15;;;5.60;77.90;;;;;;5014517;28;20076;-64
2022/01/20 12:31:03;;;;;;;1031.15;193.43;;;5.70;78.10;;;;;;5018497;28;20065;-65
2022/01/20 12:33:33;;;;;;;129.57;20.17;;;5.70;78.50;;;;;;5014858;28;20113;-65
2022/01/20 12:36:04;;;;;;;28.63;5.03;;;5.80;79.00;;;;;;5022898;28;20061;-65
2022/01/20 12:38:34;;;;;;;14.30;3.47;;;5.80;77.50;;;;;;5032900;28;20604;-65
2022/01/20 12:41:17;;;;;;;14.68;2.90;;;5.90;77.70;;;;;;5024951;28;20036;-63
2022/01/20 12:43:53;;;;;;;7.90;2.80;;;5.80;77.40;;;;;;5014261;28;20029;-64
2022/01/20 12:46:21;;;;;;;17.33;3.40;;;5.80;76.40;;;;;;5025298;28;20025;-64
2022/01/20 12:48:51;;;;;;;12.18;3.50;;;5.70;76.30;;;;;;5024012;28;20034;-64
2022/01/20 12:51:17;;;;;;;13.60;2.75;;;5.70;76.60;;;;;;5014125;28;20026;-65
2022/01/20 12:53:54;;;;;;;7.07;2.80;;;5.60;75.50;;;;;;5014270;28;20025;-65
2022/01/20 12:56:32;;;;;;;11.80;3.70;;;5.60;76.40;;;;;;5018893;28;20500;-65
2022/01/20 12:58:58;;;;;;;6.63;2.30;;;5.50;76.80;;;;;;5033790;28;20037;-64
2022/01/20 13:01:24;;;;;;;72.57;13.65;;;5.50;76.50;;;;;;5031837;28;20895;-65
2022/01/20 13:03:50;;;;;;;548.67;89.70;;;5.50;77.20;;;;;;5033665;28;20021;-65
2022/01/20 13:06:24;;;;;;;440.45;76.53;;;5.50;77.40;;;;;;5020641;28;20022;-65
2022/01/20 13:09:06;;;;;;;982.78;187.00;;;5.60;77.10;;;;;;5020096;28;20030;-65
2022/01/20 13:11:39;;;;;;;394.35;59.63;;;5.50;77.00;;;;;;5022904;28;20509;-65
2022/01/20 13:14:05;;;;;;;86.25;15.13;;;5.60;77.50;;;;;;5031630;28;20065;-65
2022/01/20 13:16:34;;;;;;;58.88;12.23;;;5.60;77.30;;;;;;5031757;28;20498;-65
2022/01/20 13:19:04;;;;;;;13.35;3.00;;;5.60;77.70;;;;;;5030315;28;20036;-65
2022/01/20 13:21:40;;;;;;;23.20;4.40;;;5.60;76.80;;;;;;5029656;28;20073;-65
2022/01/20 13:24:08;;;;;;;13.50;3.95;;;5.50;76.70;;;;;;5030825;28;20140;-65
2022/01/20 13:26:48;;;;;;;82.80;15.23;;;5.40;76.40;;;;;;5031233;28;20033;-65
2022/01/20 13:29:14;;;;;;;97.72;14.45;;;5.40;76.30;;;;;;5031912;28;20068;-65
2022/01/20 13:31:40;;;;;;;329.90;49.92;;;5.40;75.90;;;;;;5030016;28;20063;-65
2022/01/20 13:34:11;;;;;;;774.42;130.88;;;5.40;76.20;;;;;;5015464;28;20025;-65
2022/01/20 13:36:38;;;;;;;278.88;54.10;;;5.40;76.40;;;;;;5013955;28;20065;-66
2022/01/20 13:39:04;;;;;;;216.63;36.65;;;5.40;76.60;;;;;;5031431;28;20030;-65
2022/01/20 13:41:30;;;;;;;321.80;46.95;;;5.40;76.70;;;;;;5013037;28;20034;-64
2022/01/20 13:46:45;;;;;;;294.65;42.03;;;5.40;75.90;;;;;;5017078;28;20025;-65